createdAt,value
2023-02-12T00:00:49.027Z,100724.66
2023-02-12T00:03:16.241Z,100727.19
2023-02-12T00:05:43.223Z,100734.38
2023-02-12T00:08:12.166Z,100739.50
2023-02-12T00:10:43.878Z,100736.19
2023-02-12T00:13:12.163Z,100743.19
2023-02-12T00:15:43.971Z,100744.91
2023-02-12T00:18:11.030Z,100740.56
2023-02-12T00:20:38.980Z,100738.94
2023-02-12T00:23:06.903Z,100731.06
2023-02-12T00:25:34.712Z,100730.25
2023-02-12T00:28:01.635Z,100721.59
2023-02-12T00:30:28.515Z,100721.66
2023-02-12T00:32:55.472Z,100719.97
2023-02-12T00:35:22.290Z,100713.03
2023-02-12T00:37:50.636Z,100714.75
2023-02-12T00:40:17.461Z,100706.06
2023-02-12T00:42:44.304Z,100706.88
2023-02-12T00:45:11.286Z,100714.69
2023-02-12T00:47:38.141Z,100712.25
2023-02-12T00:50:05.580Z,100722.63
2023-02-12T00:52:32.406Z,100716.81
2023-02-12T00:54:59.362Z,100717.66
2023-02-12T00:57:26.148Z,100711.63
2023-02-12T00:59:52.960Z,100702.72
2023-02-12T01:02:19.871Z,100712.22
2023-02-12T01:04:46.868Z,100715.50
2023-02-12T01:07:13.774Z,100701.59
2023-02-12T01:09:40.721Z,100704.84
2023-02-12T01:12:07.972Z,100706.69
2023-02-12T01:14:34.889Z,100702.63
2023-02-12T01:17:03.894Z,100699.03
2023-02-12T01:19:30.776Z,100701.50
2023-02-12T01:21:58.029Z,100698.06
2023-02-12T01:24:24.821Z,100689.25
2023-02-12T01:26:51.647Z,100684.22
2023-02-12T01:29:18.620Z,100677.22
2023-02-12T01:31:45.518Z,100685.22
2023-02-12T01:34:13.132Z,100681.53
2023-02-12T01:36:40.014Z,100677.72
2023-02-12T01:39:07.120Z,100665.50
2023-02-12T01:41:37.382Z,100672.56
2023-02-12T01:44:07.088Z,100668.38
2023-02-12T01:46:34.095Z,100665.91
2023-02-12T01:49:02.848Z,100671.91
2023-02-12T01:51:30.275Z,100662.44
2023-02-12T01:54:01.561Z,100662.59
2023-02-12T01:56:29.126Z,100652.63
2023-02-12T01:58:57.836Z,100662.50
2023-02-12T02:01:28.144Z,100665.91
2023-02-12T02:04:00.936Z,100674.75
2023-02-12T02:06:46.783Z,100669.56
2023-02-12T02:09:16.385Z,100668.06
2023-02-12T02:12:01.586Z,100668.47
2023-02-12T02:14:34.328Z,100672.84
2023-02-12T02:17:07.993Z,100662.72
2023-02-12T02:19:56.456Z,100663.38
2023-02-12T02:22:39.418Z,100670.81
2023-02-12T02:25:27.441Z,100670.69
2023-02-12T02:28:26.431Z,100669.81
2023-02-12T02:31:12.167Z,100667.50
2023-02-12T02:34:24.343Z,100653.34
2023-02-12T02:37:01.463Z,100660.94
2023-02-12T02:39:55.283Z,100661.81
2023-02-12T02:42:29.160Z,100657.41
2023-02-12T02:45:21.892Z,100663.66
2023-02-12T02:47:56.628Z,100662.38
2023-02-12T02:50:28.120Z,100657.00
2023-02-12T02:53:11.508Z,100658.09
2023-02-12T02:55:53.196Z,100657.06
2023-02-12T02:58:22.647Z,100650.91
2023-02-12T03:00:57.531Z,100650.00
2023-02-12T03:03:27.728Z,100647.44
2023-02-12T03:06:01.064Z,100660.25
2023-02-12T03:08:35.074Z,100667.16
2023-02-12T03:11:10.157Z,100666.03
2023-02-12T03:13:46.650Z,100652.38
2023-02-12T03:16:20.606Z,100662.94
2023-02-12T03:18:59.483Z,100667.25
2023-02-12T03:21:33.124Z,100661.84
2023-02-12T03:24:12.912Z,100651.59
2023-02-12T03:26:43.690Z,100650.66
2023-02-12T03:29:10.766Z,100647.09
2023-02-12T03:32:04.964Z,100646.53
2023-02-12T03:34:40.885Z,100653.38
2023-02-12T03:37:14.442Z,100647.22
2023-02-12T03:40:05.794Z,100653.13
2023-02-12T03:42:39.447Z,100657.47
2023-02-12T03:45:25.092Z,100650.53
2023-02-12T03:47:54.574Z,100663.59
2023-02-12T03:50:36.304Z,100668.66
2023-02-12T03:53:03.295Z,100666.81
2023-02-12T03:55:32.644Z,100678.06
2023-02-12T03:58:03.217Z,100665.19
2023-02-12T04:00:30.460Z,100661.75
2023-02-12T04:02:57.541Z,100676.69
2023-02-12T04:05:26.607Z,100663.53
2023-02-12T04:07:56.782Z,100660.16
2023-02-12T04:10:32.850Z,100658.44
2023-02-12T04:13:17.582Z,100649.00
2023-02-12T04:16:05.471Z,100664.13
2023-02-12T04:18:43.106Z,100665.59
2023-02-12T04:21:37.332Z,100658.69
2023-02-12T04:24:25.360Z,100658.56
2023-02-12T04:27:03.462Z,100650.69
2023-02-12T04:29:42.297Z,100655.81
2023-02-12T04:32:17.648Z,100664.44
2023-02-12T04:34:56.377Z,100668.84
2023-02-12T04:37:30.672Z,100667.91
2023-02-12T04:39:59.953Z,100670.84
2023-02-12T04:42:26.804Z,100680.56
2023-02-12T04:44:53.760Z,100690.09
2023-02-12T04:47:20.579Z,100696.06
2023-02-12T04:49:47.525Z,100695.09
2023-02-12T04:52:14.337Z,100699.69
2023-02-12T04:54:41.283Z,100698.63
2023-02-12T04:57:09.237Z,100698.69
2023-02-12T04:59:36.150Z,100700.47
2023-02-12T05:02:02.996Z,100696.00
2023-02-12T05:04:29.806Z,100704.63
2023-02-12T05:06:56.664Z,100704.50
2023-02-12T05:09:23.618Z,100708.06
2023-02-12T05:11:50.474Z,100706.19
2023-02-12T05:14:17.359Z,100713.09
2023-02-12T05:16:44.315Z,100722.50
2023-02-12T05:19:12.121Z,100721.59
2023-02-12T05:21:39.032Z,100728.50
2023-02-12T05:24:06.644Z,100718.88
2023-02-12T05:26:34.120Z,100734.38
2023-02-12T05:29:01.304Z,100740.50
2023-02-12T05:31:28.234Z,100738.06
2023-02-12T05:33:55.246Z,100753.78
2023-02-12T05:36:23.810Z,100751.25
2023-02-12T05:38:52.071Z,100752.94
2023-02-12T05:41:22.008Z,100750.38
2023-02-12T05:43:50.327Z,100768.53
2023-02-12T05:46:19.393Z,100770.06
2023-02-12T05:48:47.053Z,100766.94
2023-02-12T05:51:17.520Z,100766.75
2023-02-12T05:53:44.343Z,100776.47
2023-02-12T05:56:26.722Z,100782.56
2023-02-12T05:59:03.551Z,100778.25
2023-02-12T06:01:34.331Z,100782.44
2023-02-12T06:04:02.973Z,100786.69
2023-02-12T06:06:31.220Z,100789.31
2023-02-12T06:08:59.254Z,100794.28
2023-02-12T06:11:26.510Z,100803.69
2023-02-12T06:13:53.506Z,100797.91
2023-02-12T06:16:22.715Z,100800.47
2023-02-12T06:18:50.748Z,100802.03
2023-02-12T06:21:20.233Z,100817.59
2023-02-12T06:23:48.300Z,100813.81
2023-02-12T06:26:15.731Z,100802.50
2023-02-12T06:28:42.553Z,100811.97
2023-02-12T06:31:21.457Z,100804.94
2023-02-12T06:33:48.431Z,100805.25
2023-02-12T06:36:15.732Z,100808.41
2023-02-12T06:38:42.641Z,100813.31
2023-02-12T06:41:09.923Z,100814.81
2023-02-12T06:43:37.174Z,100808.84
2023-02-12T06:46:05.265Z,100808.78
2023-02-12T06:48:32.656Z,100795.91
2023-02-12T06:51:11.316Z,100811.22
2023-02-12T06:53:38.244Z,100813.72
2023-02-12T06:56:11.318Z,100813.38
2023-02-12T06:58:42.650Z,100817.00
2023-02-12T07:01:21.650Z,100799.56
2023-02-12T07:03:53.985Z,100798.63
2023-02-12T07:06:22.021Z,100813.44
2023-02-12T07:08:48.911Z,100809.97
2023-02-12T07:11:17.581Z,100810.28
2023-02-12T07:13:45.284Z,100811.69
2023-02-12T07:16:15.389Z,100809.28
2023-02-12T07:18:43.867Z,100805.53
2023-02-12T07:21:12.621Z,100806.19
2023-02-12T07:23:39.864Z,100810.97
2023-02-12T07:26:16.710Z,100805.81
2023-02-12T07:28:44.146Z,100813.25
2023-02-12T07:31:20.389Z,100807.03
2023-02-12T07:33:48.043Z,100805.16
2023-02-12T07:36:18.110Z,100804.75
2023-02-12T07:38:44.963Z,100805.19
2023-02-12T07:41:21.205Z,100799.88
2023-02-12T07:43:53.017Z,100791.50
2023-02-12T07:46:30.039Z,100803.09
2023-02-12T07:48:59.258Z,100801.47
2023-02-12T07:51:27.301Z,100803.19
2023-02-12T07:53:54.785Z,100795.75
2023-02-12T07:56:30.845Z,100799.44
2023-02-12T07:59:02.366Z,100811.34
2023-02-12T08:01:32.418Z,100810.34
2023-02-12T08:04:02.122Z,100812.50
2023-02-12T08:06:31.512Z,100806.63
2023-02-12T08:09:00.099Z,100808.06
2023-02-12T08:11:28.333Z,100812.66
2023-02-12T08:13:55.609Z,100804.91
2023-02-12T08:16:24.885Z,100807.53
2023-02-12T08:18:53.035Z,100810.03
2023-02-12T08:21:22.546Z,100816.56
2023-02-12T08:23:50.830Z,100816.63
2023-02-12T08:26:24.170Z,100814.19
2023-02-12T08:28:57.599Z,100813.66
2023-02-12T08:31:27.851Z,100809.06
2023-02-12T08:33:55.914Z,100813.13
2023-02-12T08:36:44.457Z,100803.22
2023-02-12T08:39:11.641Z,100804.38
2023-02-12T08:41:38.623Z,100802.66
2023-02-12T08:44:06.013Z,100823.19
2023-02-12T08:46:36.124Z,100823.88
2023-02-12T08:49:06.161Z,100827.25
2023-02-12T08:51:36.026Z,100836.41
2023-02-12T08:54:06.635Z,100834.78
2023-02-12T08:56:35.217Z,100827.91
2023-02-12T08:59:04.748Z,100819.66
2023-02-12T09:01:33.724Z,100828.75
2023-02-12T09:04:00.922Z,100827.97
2023-02-12T09:06:28.429Z,100816.28
2023-02-12T09:08:55.920Z,100813.34
2023-02-12T09:11:30.507Z,100816.47
2023-02-12T09:14:06.872Z,100819.06
2023-02-12T09:16:36.001Z,100818.13
2023-02-12T09:19:03.999Z,100814.84
2023-02-12T09:21:31.016Z,100823.13
2023-02-12T09:23:57.999Z,100825.25
2023-02-12T09:26:28.432Z,100823.06
2023-02-12T09:28:55.926Z,100824.41
2023-02-12T09:31:29.053Z,100831.09
2023-02-12T09:33:59.716Z,100819.13
2023-02-12T09:36:27.046Z,100826.69
2023-02-12T09:38:57.521Z,100825.16
2023-02-12T09:41:30.200Z,100824.09
2023-02-12T09:44:09.413Z,100824.00
2023-02-12T09:46:45.789Z,100824.41
2023-02-12T09:49:18.677Z,100830.84
2023-02-12T09:51:53.943Z,100835.69
2023-02-12T09:54:24.136Z,100828.53
2023-02-12T09:56:59.073Z,100815.94
2023-02-12T09:59:46.979Z,100832.72
2023-02-12T10:02:19.224Z,100825.63
2023-02-12T10:05:00.170Z,100821.69
2023-02-12T10:07:42.941Z,100828.31
2023-02-12T10:10:43.188Z,100826.78
2023-02-12T10:13:53.924Z,100831.97
2023-02-12T10:16:32.249Z,100840.19
2023-02-12T10:19:14.364Z,100836.09
2023-02-12T10:21:48.330Z,100834.66
2023-02-12T10:24:34.674Z,100835.44
2023-02-12T10:27:09.750Z,100841.44
2023-02-12T10:29:42.568Z,100843.91
2023-02-12T10:32:29.912Z,100844.75
2023-02-12T10:34:57.926Z,100843.06
2023-02-12T10:37:43.611Z,100850.66
2023-02-12T10:40:39.119Z,100847.06
2023-02-12T10:43:06.124Z,100851.66
2023-02-12T10:45:35.623Z,100863.06
2023-02-12T10:48:17.871Z,100867.28
2023-02-12T10:51:07.073Z,100873.88
2023-02-12T10:53:35.623Z,100874.50
2023-02-12T10:56:19.340Z,100873.88
2023-02-12T10:58:54.043Z,100886.19
2023-02-12T11:01:28.863Z,100882.31
2023-02-12T11:03:58.746Z,100887.47
2023-02-12T11:06:29.937Z,100889.03
2023-02-12T11:08:58.664Z,100897.66
2023-02-12T11:11:31.796Z,100893.66
2023-02-12T11:14:04.499Z,100893.75
2023-02-12T11:16:34.895Z,100891.94
2023-02-12T11:19:04.982Z,100887.78
2023-02-12T11:21:33.586Z,100897.00
2023-02-12T11:24:31.748Z,100887.06
2023-02-12T11:27:16.742Z,100889.03
2023-02-12T11:29:45.639Z,100884.84
2023-02-12T11:32:19.827Z,100885.91
2023-02-12T11:35:27.201Z,100886.06
2023-02-12T11:37:57.595Z,100885.09
2023-02-12T11:40:30.676Z,100884.81
2023-02-12T11:43:09.643Z,100886.84
2023-02-12T11:45:57.958Z,100891.19
2023-02-12T11:48:37.939Z,100890.00
2023-02-12T11:51:09.180Z,100889.59
2023-02-12T11:53:41.218Z,100878.69
2023-02-12T11:56:13.769Z,100875.00
2023-02-12T11:58:41.020Z,100885.56
2023-02-12T12:01:19.338Z,100888.69
2023-02-12T12:03:49.219Z,100885.81
2023-02-12T12:06:22.267Z,100881.41
2023-02-12T12:08:58.270Z,100885.81
2023-02-12T12:12:04.970Z,100879.78
2023-02-12T12:14:31.801Z,100880.63
2023-02-12T12:17:27.335Z,100878.31
2023-02-12T12:20:02.556Z,100881.72
2023-02-12T12:22:53.830Z,100877.97
2023-02-12T12:25:33.506Z,100880.53
2023-02-12T12:28:15.579Z,100889.22
2023-02-12T12:30:58.720Z,100904.69
2023-02-12T12:33:52.963Z,100908.19
2023-02-12T12:36:44.389Z,100914.00
2023-02-12T12:40:05.052Z,100907.09
2023-02-12T12:42:52.916Z,100918.81
2023-02-12T12:45:47.740Z,100923.63
2023-02-12T12:48:20.606Z,100930.59
2023-02-12T12:51:02.963Z,100936.41
2023-02-12T12:53:40.403Z,100939.91
2023-02-12T12:56:07.483Z,100947.16
2023-02-12T12:59:03.552Z,100943.03
2023-02-12T13:02:07.478Z,100952.72
2023-02-12T13:04:58.748Z,100950.66
2023-02-12T13:07:43.993Z,100968.00
2023-02-12T13:10:36.415Z,100969.53
2023-02-12T13:13:27.126Z,100971.56
2023-02-12T13:16:03.726Z,100972.38
2023-02-12T13:18:52.881Z,100980.31
2023-02-12T13:21:38.286Z,100980.75
2023-02-12T13:24:39.398Z,100993.50
2023-02-12T13:27:12.904Z,100990.38
2023-02-12T13:29:51.673Z,100992.72
2023-02-12T13:32:32.879Z,100999.66
2023-02-12T13:35:02.882Z,101005.63
2023-02-12T13:37:38.241Z,101002.53
2023-02-12T13:40:07.579Z,101008.31
2023-02-12T13:42:54.105Z,101023.44
2023-02-12T13:45:53.062Z,101012.22
2023-02-12T13:48:58.408Z,101014.31
2023-02-12T13:51:43.708Z,101031.47
2023-02-12T13:54:22.215Z,101036.16
2023-02-12T13:56:56.361Z,101043.66
2023-02-12T13:59:32.414Z,101046.28
2023-02-12T14:02:04.488Z,101048.88
2023-02-12T14:04:37.861Z,101051.47
2023-02-12T14:07:13.908Z,101055.56
2023-02-12T14:09:45.463Z,101060.75
2023-02-12T14:12:32.050Z,101075.44
2023-02-12T14:15:08.081Z,101071.28
2023-02-12T14:17:34.866Z,101076.13
2023-02-12T14:20:26.525Z,101073.91
2023-02-12T14:23:28.625Z,101086.69
2023-02-12T14:25:59.843Z,101093.16
2023-02-12T14:28:46.424Z,101086.03
2023-02-12T14:31:31.530Z,101091.22
2023-02-12T14:34:10.022Z,101097.09
2023-02-12T14:36:49.159Z,101105.38
2023-02-12T14:39:24.565Z,101109.94
2023-02-12T14:41:54.830Z,101103.75
2023-02-12T14:44:23.192Z,101114.34
2023-02-12T14:46:58.117Z,101126.25
2023-02-12T14:49:26.871Z,101128.56
2023-02-12T14:52:06.876Z,101137.47
2023-02-12T14:54:51.765Z,101136.25
2023-02-12T14:57:31.412Z,101150.25
2023-02-12T15:00:16.603Z,101167.50
2023-02-12T15:03:00.036Z,101161.28
2023-02-12T15:05:34.772Z,101163.66
2023-02-12T15:08:26.488Z,101164.25
2023-02-12T15:10:58.304Z,101172.03
2023-02-12T15:13:31.261Z,101168.69
2023-02-12T15:16:17.316Z,101173.88
2023-02-12T15:19:07.936Z,101185.16
2023-02-12T15:21:36.322Z,101197.59
2023-02-12T15:24:07.431Z,101200.84
2023-02-12T15:26:43.826Z,101199.16
2023-02-12T15:29:48.703Z,101216.28
2023-02-12T15:32:25.596Z,101222.50
2023-02-12T15:34:53.847Z,101222.06
2023-02-12T15:37:25.438Z,101233.38
2023-02-12T15:39:56.171Z,101226.44
2023-02-12T15:42:27.207Z,101238.31
2023-02-12T15:45:22.454Z,101243.66
2023-02-12T15:48:07.911Z,101250.72
2023-02-12T15:50:36.360Z,101243.69
2023-02-12T15:53:03.396Z,101250.38
2023-02-12T15:55:39.207Z,101256.72
2023-02-12T15:58:22.688Z,101258.56
2023-02-12T16:00:50.122Z,101272.13
2023-02-12T16:03:31.417Z,101268.81
2023-02-12T16:06:11.254Z,101272.41
2023-02-12T16:08:39.429Z,101278.03
2023-02-12T16:11:14.584Z,101275.13
2023-02-12T16:13:53.503Z,101279.50
2023-02-12T16:16:20.377Z,101298.34
2023-02-12T16:19:04.113Z,101305.31
2023-02-12T16:21:31.484Z,101306.44
2023-02-12T16:23:58.500Z,101314.78
2023-02-12T16:26:27.768Z,101309.81
2023-02-12T16:28:56.902Z,101327.56
2023-02-12T16:31:27.004Z,101322.75
2023-02-12T16:33:58.632Z,101323.56
2023-02-12T16:36:25.504Z,101327.66
2023-02-12T16:39:00.100Z,101326.03
2023-02-12T16:41:32.304Z,101333.06
2023-02-12T16:44:01.893Z,101333.31
2023-02-12T16:46:34.466Z,101335.06
2023-02-12T16:49:02.815Z,101328.72
2023-02-12T16:51:36.762Z,101343.06
2023-02-12T16:54:05.413Z,101338.69
2023-02-12T16:56:38.748Z,101342.59
2023-02-12T16:59:06.934Z,101351.75
2023-02-12T17:01:37.472Z,101356.56
2023-02-12T17:04:09.163Z,101360.59
2023-02-12T17:06:36.017Z,101360.53
2023-02-12T17:09:02.813Z,101362.03
2023-02-12T17:11:29.737Z,101365.28
2023-02-12T17:13:57.026Z,101366.72
2023-02-12T17:16:32.265Z,101365.34
2023-02-12T17:19:00.467Z,101376.34
2023-02-12T17:21:40.368Z,101366.31
2023-02-12T17:24:15.227Z,101379.84
2023-02-12T17:26:42.237Z,101390.25
2023-02-12T17:29:09.092Z,101382.75
2023-02-12T17:31:36.812Z,101387.34
2023-02-12T17:34:05.046Z,101391.66
2023-02-12T17:36:32.546Z,101405.00
2023-02-12T17:38:59.522Z,101413.84
2023-02-12T17:41:26.353Z,101418.50
2023-02-12T17:43:53.188Z,101417.69
2023-02-12T17:46:23.134Z,101421.34
2023-02-12T17:48:50.014Z,101422.13
2023-02-12T17:51:17.317Z,101419.44
2023-02-12T17:53:44.557Z,101416.91
2023-02-12T17:56:13.416Z,101423.59
2023-02-12T17:58:41.701Z,101424.16
2023-02-12T18:01:10.543Z,101435.28
2023-02-12T18:03:37.917Z,101433.63
2023-02-12T18:06:05.753Z,101427.22
2023-02-12T18:08:32.613Z,101428.91
2023-02-12T18:11:04.675Z,101434.66
2023-02-12T18:13:31.683Z,101433.66
2023-02-12T18:15:58.536Z,101439.16
2023-02-12T18:18:25.400Z,101446.47
2023-02-12T18:20:52.318Z,101443.53
2023-02-12T18:23:19.244Z,101449.91
2023-02-12T18:25:46.082Z,101452.78
2023-02-12T18:28:13.162Z,101452.53
2023-02-12T18:30:42.950Z,101465.56
2023-02-12T18:33:12.257Z,101472.47
2023-02-12T18:35:41.817Z,101478.69
2023-02-12T18:38:08.690Z,101473.59
2023-02-12T18:40:35.620Z,101475.66
2023-02-12T18:43:02.532Z,101476.13
2023-02-12T18:45:29.660Z,101475.28
2023-02-12T18:47:56.584Z,101481.69
2023-02-12T18:50:23.824Z,101482.97
2023-02-12T18:52:50.674Z,101490.03
2023-02-12T18:55:17.719Z,101492.66
2023-02-12T18:57:44.648Z,101489.41
2023-02-12T19:00:11.963Z,101488.16
2023-02-12T19:02:39.206Z,101505.25
2023-02-12T19:05:06.266Z,101506.78
2023-02-12T19:07:33.153Z,101507.59
2023-02-12T19:09:59.938Z,101498.78
2023-02-12T19:12:26.800Z,101505.34
2023-02-12T19:14:53.671Z,101504.28
2023-02-12T19:17:20.894Z,101506.84
2023-02-12T19:19:51.222Z,101512.47
2023-02-12T19:22:19.304Z,101513.06
2023-02-12T19:24:47.249Z,101510.91
2023-02-12T19:27:14.337Z,101515.44
2023-02-12T19:29:41.140Z,101512.69
2023-02-12T19:32:08.281Z,101516.34
2023-02-12T19:34:35.277Z,101521.66
2023-02-12T19:37:02.161Z,101524.50
2023-02-12T19:39:29.574Z,101515.00
2023-02-12T19:41:56.534Z,101521.19
2023-02-12T19:44:24.983Z,101517.03
2023-02-12T19:46:52.649Z,101527.31
2023-02-12T19:49:22.675Z,101530.91
2023-02-12T19:51:50.078Z,101531.91
2023-02-12T19:54:19.070Z,101535.47
2023-02-12T19:56:46.512Z,101546.81
2023-02-12T19:59:17.237Z,101554.69
2023-02-12T20:01:45.003Z,101557.31
2023-02-12T20:04:14.239Z,101564.34
2023-02-12T20:06:42.283Z,101565.97
2023-02-12T20:09:10.919Z,101576.69
2023-02-12T20:11:38.628Z,101573.50
2023-02-12T20:14:07.920Z,101571.56
2023-02-12T20:16:38.252Z,101565.03
2023-02-12T20:19:11.945Z,101567.06
2023-02-12T20:21:39.374Z,101574.91
2023-02-12T20:24:06.649Z,101575.91
2023-02-12T20:26:34.610Z,101583.16
2023-02-12T20:29:04.921Z,101576.16
2023-02-12T20:31:34.268Z,101582.47
2023-02-12T20:34:05.048Z,101578.88
2023-02-12T20:36:34.192Z,101590.75
2023-02-12T20:39:01.317Z,101585.00
2023-02-12T20:41:28.913Z,101581.56
2023-02-12T20:43:59.133Z,101593.53
2023-02-12T20:46:26.782Z,101597.97
2023-02-12T20:48:55.318Z,101588.56
2023-02-12T20:51:25.886Z,101588.34
2023-02-12T20:53:55.467Z,101593.91
2023-02-12T20:56:27.832Z,101599.09
2023-02-12T20:58:54.673Z,101589.50
2023-02-12T21:01:27.865Z,101595.31
2023-02-12T21:03:55.684Z,101589.63
2023-02-12T21:06:24.712Z,101595.63
2023-02-12T21:08:51.565Z,101595.22
2023-02-12T21:11:22.198Z,101592.09
2023-02-12T21:13:58.760Z,101592.88
2023-02-12T21:16:33.445Z,101602.50
2023-02-12T21:19:01.139Z,101597.84
2023-02-12T21:21:30.572Z,101604.16
2023-02-12T21:23:59.307Z,101614.63
2023-02-12T21:26:28.630Z,101609.03
2023-02-12T21:28:57.591Z,101610.97
2023-02-12T21:31:26.426Z,101600.72
2023-02-12T21:33:55.003Z,101614.63
2023-02-12T21:36:24.540Z,101607.81
2023-02-12T21:38:52.710Z,101607.81
2023-02-12T21:41:22.291Z,101623.56
2023-02-12T21:43:52.102Z,101622.66
2023-02-12T21:46:21.747Z,101624.63
2023-02-12T21:48:49.568Z,101624.78
2023-02-12T21:51:24.083Z,101629.06
2023-02-12T21:53:52.717Z,101630.88
2023-02-12T21:56:19.897Z,101635.09
2023-02-12T21:58:47.269Z,101633.38
2023-02-12T22:01:17.268Z,101630.75
2023-02-12T22:03:44.828Z,101636.97
2023-02-12T22:06:14.087Z,101637.03
2023-02-12T22:08:40.938Z,101632.75
2023-02-12T22:11:10.712Z,101647.53
2023-02-12T22:13:37.911Z,101646.06
2023-02-12T22:16:16.431Z,101645.59
2023-02-12T22:18:44.146Z,101642.13
2023-02-12T22:21:13.601Z,101642.88
2023-02-12T22:23:41.269Z,101646.28
2023-02-12T22:26:20.753Z,101644.47
2023-02-12T22:28:59.008Z,101649.66
2023-02-12T22:31:29.958Z,101645.34
2023-02-12T22:33:59.627Z,101654.88
2023-02-12T22:36:28.535Z,101659.22
2023-02-12T22:38:58.969Z,101665.44
2023-02-12T22:41:27.239Z,101663.06
2023-02-12T22:43:55.041Z,101664.09
2023-02-12T22:46:23.528Z,101674.53
2023-02-12T22:48:50.404Z,101668.44
2023-02-12T22:51:27.125Z,101668.44
2023-02-12T22:53:55.293Z,101674.50
2023-02-12T22:56:23.029Z,101671.94
2023-02-12T22:58:55.112Z,101672.84
2023-02-12T23:01:22.378Z,101672.03
2023-02-12T23:03:49.487Z,101669.41
2023-02-12T23:06:19.041Z,101678.13
2023-02-12T23:08:53.626Z,101678.16
2023-02-12T23:11:21.176Z,101675.53
2023-02-12T23:13:48.113Z,101676.38
2023-02-12T23:16:15.048Z,101681.63
2023-02-12T23:18:42.364Z,101677.47
2023-02-12T23:21:09.594Z,101682.03
2023-02-12T23:23:36.463Z,101681.19
2023-02-12T23:26:03.479Z,101675.16
2023-02-12T23:28:30.740Z,101684.75
2023-02-12T23:30:58.109Z,101678.66
2023-02-12T23:33:25.377Z,101681.09
2023-02-12T23:35:52.298Z,101673.06
2023-02-12T23:38:19.159Z,101678.25
2023-02-12T23:40:47.999Z,101686.03
2023-02-12T23:43:15.136Z,101681.81
2023-02-12T23:45:44.640Z,101694.03
2023-02-12T23:48:12.061Z,101695.78
2023-02-12T23:50:39.326Z,101695.78
2023-02-12T23:53:06.419Z,101684.47
2023-02-12T23:55:36.597Z,101687.13
2023-02-12T23:58:04.894Z,101701.03
